createdAt,value
2022-11-19T00:00:10.214Z,5.10
2022-11-19T00:03:06.756Z,4.90
2022-11-19T00:07:17.419Z,4.90
2022-11-19T00:10:29.358Z,5.00
2022-11-19T00:16:35.767Z,4.90
2022-11-19T00:19:51.723Z,4.90
2022-11-19T00:28:27.093Z,4.80
2022-11-19T00:31:24.586Z,4.80
2022-11-19T00:55:33.625Z,4.70
2022-11-19T00:59:28.952Z,4.70
2022-11-19T01:08:10.894Z,4.80
2022-11-19T01:11:45.344Z,4.80
2022-11-19T01:14:36.546Z,4.80
2022-11-19T01:17:24.864Z,4.80
2022-11-19T01:20:19.824Z,4.70
2022-11-19T01:23:11.662Z,4.70
2022-11-19T01:26:01.409Z,4.70
2022-11-19T01:28:50.304Z,4.70
2022-11-19T01:31:39.014Z,4.60
2022-11-19T01:34:27.948Z,4.60
2022-11-19T01:37:16.137Z,4.50
2022-11-19T01:40:07.868Z,4.50
2022-11-19T01:42:56.005Z,4.40
2022-11-19T01:45:49.541Z,4.50
2022-11-19T01:48:55.619Z,4.50
2022-11-19T01:51:57.141Z,4.40
2022-11-19T01:54:51.448Z,4.50
2022-11-19T01:57:41.767Z,4.40
2022-11-19T02:00:33.008Z,4.40
2022-11-19T02:03:21.780Z,4.30
2022-11-19T02:06:19.080Z,4.30
2022-11-19T02:09:07.598Z,4.30
2022-11-19T02:12:24.643Z,4.30
2022-11-19T02:15:32.887Z,4.30
2022-11-19T02:18:50.686Z,4.40
2022-11-19T02:21:49.211Z,4.30
2022-11-19T02:24:55.926Z,4.30
2022-11-19T02:28:43.392Z,4.20
2022-11-19T02:31:55.648Z,4.20
2022-11-19T02:35:39.236Z,4.30
2022-11-19T02:38:49.632Z,4.30
2022-11-19T02:42:33.855Z,4.30
2022-11-19T02:45:33.935Z,4.50
2022-11-19T02:48:30.157Z,4.50
2022-11-19T02:51:19.816Z,4.50
2022-11-19T02:54:08.760Z,4.40
2022-11-19T02:57:02.827Z,4.30
2022-11-19T03:00:17.891Z,4.30
2022-11-19T03:03:38.576Z,4.00
2022-11-19T03:06:29.306Z,3.90
2022-11-19T03:09:18.074Z,3.90
2022-11-19T03:12:35.152Z,3.90
2022-11-19T03:16:02.365Z,4.00
2022-11-19T03:19:15.530Z,4.10
2022-11-19T03:22:18.303Z,4.00
2022-11-19T03:25:59.870Z,3.90
2022-11-19T03:28:49.905Z,3.80
2022-11-19T03:31:44.027Z,3.70
2022-11-19T03:34:33.937Z,3.70
2022-11-19T03:37:25.437Z,3.70
2022-11-19T03:40:16.052Z,3.80
2022-11-19T03:43:08.192Z,3.80
2022-11-19T03:45:58.748Z,3.80
2022-11-19T03:48:51.300Z,3.80
2022-11-19T03:51:49.107Z,3.60
2022-11-19T03:54:39.311Z,3.50
2022-11-19T03:57:27.683Z,3.50
2022-11-19T04:00:16.479Z,3.60
2022-11-19T04:03:07.730Z,3.50
2022-11-19T04:05:55.862Z,3.50
2022-11-19T04:08:47.764Z,3.50
2022-11-19T04:11:35.918Z,3.40
2022-11-19T04:14:23.873Z,3.40
2022-11-19T04:17:11.933Z,3.50
2022-11-19T04:20:09.018Z,3.30
2022-11-19T04:22:57.483Z,3.20
2022-11-19T04:25:56.816Z,3.20
2022-11-19T04:28:44.679Z,3.20
2022-11-19T04:31:33.395Z,3.20
2022-11-19T04:34:21.218Z,3.10
2022-11-19T04:37:09.289Z,3.00
2022-11-19T04:39:57.222Z,3.00
2022-11-19T04:42:45.349Z,2.90
2022-11-19T04:45:33.625Z,2.90
2022-11-19T04:48:21.485Z,2.70
2022-11-19T04:51:12.693Z,2.70
2022-11-19T04:54:00.608Z,2.70
2022-11-19T04:56:48.711Z,2.60
2022-11-19T04:59:37.063Z,2.60
2022-11-19T05:02:24.987Z,2.60
2022-11-19T05:05:12.969Z,2.70
2022-11-19T05:08:00.873Z,2.50
2022-11-19T05:10:49.020Z,2.50
2022-11-19T05:13:37.286Z,2.50
2022-11-19T05:16:25.559Z,2.50
2022-11-19T05:19:13.575Z,2.60
2022-11-19T05:22:01.523Z,2.60
2022-11-19T05:24:49.400Z,2.50
2022-11-19T05:27:37.305Z,2.60
2022-11-19T05:30:25.272Z,2.40
2022-11-19T05:33:13.149Z,2.40
2022-11-19T05:36:01.533Z,2.30
2022-11-19T05:38:49.323Z,2.40
2022-11-19T05:41:40.217Z,2.60
2022-11-19T05:44:28.243Z,2.50
2022-11-19T05:47:17.532Z,2.40
2022-11-19T05:50:06.036Z,2.50
2022-11-19T05:52:54.084Z,2.60
2022-11-19T05:55:42.194Z,2.40
2022-11-19T05:58:30.695Z,2.20
2022-11-19T06:01:26.316Z,2.10
2022-11-19T06:04:14.447Z,2.20
2022-11-19T06:07:02.448Z,2.30
2022-11-19T06:09:50.629Z,2.20
2022-11-19T06:12:44.122Z,2.10
2022-11-19T06:15:33.590Z,2.20
2022-11-19T06:18:21.789Z,2.10
2022-11-19T06:21:12.332Z,2.10
2022-11-19T06:24:00.458Z,2.20
2022-11-19T06:26:48.668Z,2.20
2022-11-19T06:29:36.716Z,2.10
2022-11-19T06:32:24.954Z,2.10
2022-11-19T06:35:14.519Z,2.10
2022-11-19T06:38:02.681Z,2.00
2022-11-19T06:40:50.635Z,2.10
2022-11-19T06:43:38.963Z,2.10
2022-11-19T06:46:29.221Z,2.20
2022-11-19T06:49:20.287Z,2.20
2022-11-19T06:52:09.116Z,2.20
2022-11-19T06:54:57.125Z,2.30
2022-11-19T06:57:45.229Z,2.40
2022-11-19T07:00:34.567Z,2.30
2022-11-19T07:03:22.838Z,2.40
2022-11-19T07:06:10.989Z,2.30
2022-11-19T07:08:59.347Z,2.30
2022-11-19T07:11:47.478Z,2.40
2022-11-19T07:14:36.216Z,2.30
2022-11-19T07:17:24.653Z,2.20
2022-11-19T07:20:13.321Z,2.20
2022-11-19T07:23:04.132Z,2.30
2022-11-19T07:25:53.160Z,2.30
2022-11-19T07:28:42.247Z,2.40
2022-11-19T07:31:33.541Z,2.40
2022-11-19T07:34:22.043Z,2.40
2022-11-19T07:37:13.476Z,2.50
2022-11-19T07:40:02.260Z,2.40
2022-11-19T07:42:59.344Z,2.40
2022-11-19T07:45:50.408Z,2.30
2022-11-19T07:48:38.525Z,2.30
2022-11-19T07:51:27.199Z,2.30
2022-11-19T07:54:15.574Z,2.20
2022-11-19T07:57:03.782Z,2.20
2022-11-19T07:59:51.967Z,2.30
2022-11-19T08:02:42.934Z,2.50
2022-11-19T08:05:31.209Z,2.40
2022-11-19T08:08:19.359Z,2.30
2022-11-19T08:11:09.530Z,2.30
2022-11-19T08:14:03.090Z,2.40
2022-11-19T08:17:12.577Z,2.20
2022-11-19T08:20:00.728Z,2.20
2022-11-19T08:22:52.076Z,2.40
2022-11-19T08:25:43.149Z,2.30
2022-11-19T08:28:34.404Z,2.30
2022-11-19T08:31:22.965Z,2.40
2022-11-19T08:34:42.146Z,2.30
2022-11-19T08:37:33.711Z,2.20
2022-11-19T08:40:23.019Z,2.30
2022-11-19T08:43:11.088Z,2.50
2022-11-19T08:45:59.654Z,2.50
2022-11-19T08:48:59.145Z,2.60
2022-11-19T08:51:47.259Z,2.50
2022-11-19T08:54:35.609Z,2.60
2022-11-19T08:57:24.358Z,2.40
2022-11-19T09:00:14.258Z,2.30
2022-11-19T09:03:02.298Z,2.40
2022-11-19T09:05:50.446Z,2.50
2022-11-19T09:08:39.584Z,2.40
2022-11-19T09:11:27.564Z,2.40
2022-11-19T09:14:15.527Z,2.40
2022-11-19T09:17:03.927Z,2.30
2022-11-19T09:19:51.794Z,2.40
2022-11-19T09:22:39.768Z,2.50
2022-11-19T09:25:29.432Z,2.80
2022-11-19T09:28:17.388Z,2.90
2022-11-19T09:31:18.455Z,2.90
2022-11-19T09:34:06.406Z,2.70
2022-11-19T09:36:54.413Z,2.70
2022-11-19T09:39:42.216Z,2.50
2022-11-19T09:43:04.383Z,2.60
2022-11-19T09:46:38.198Z,2.60
2022-11-19T09:49:47.026Z,2.80
2022-11-19T09:53:03.112Z,2.90
2022-11-19T09:55:57.419Z,2.70
2022-11-19T09:58:46.119Z,2.90
2022-11-19T10:01:35.941Z,2.90
2022-11-19T10:04:28.214Z,2.70
2022-11-19T10:07:31.453Z,2.70
2022-11-19T10:10:38.525Z,2.90
2022-11-19T10:13:38.570Z,2.80
2022-11-19T10:16:58.396Z,2.80
2022-11-19T10:20:33.353Z,2.80
2022-11-19T10:23:50.238Z,2.90
2022-11-19T10:26:42.527Z,2.90
2022-11-19T10:29:35.126Z,2.90
2022-11-19T10:33:12.881Z,2.90
2022-11-19T10:36:13.202Z,3.00
2022-11-19T10:39:19.004Z,3.00
2022-11-19T10:42:37.258Z,3.20
2022-11-19T10:45:29.002Z,3.20
2022-11-19T10:48:46.930Z,3.20
2022-11-19T10:51:43.016Z,3.30
2022-11-19T10:54:32.051Z,3.30
2022-11-19T10:57:21.803Z,3.40
2022-11-19T11:00:11.397Z,3.40
2022-11-19T11:03:05.149Z,3.50
2022-11-19T11:06:07.062Z,3.50
2022-11-19T11:08:59.432Z,3.50
2022-11-19T11:12:06.341Z,3.30
2022-11-19T11:14:59.531Z,3.30
2022-11-19T11:18:00.231Z,3.30
2022-11-19T11:20:50.401Z,3.10
2022-11-19T11:23:56.456Z,3.10
2022-11-19T11:26:44.919Z,3.10
2022-11-19T11:29:36.155Z,3.20
2022-11-19T11:32:30.896Z,3.30
2022-11-19T11:35:38.739Z,3.20
2022-11-19T11:38:28.201Z,3.20
2022-11-19T11:42:04.948Z,3.40
2022-11-19T11:44:59.657Z,3.30
2022-11-19T11:47:50.287Z,3.30
2022-11-19T11:50:39.048Z,3.20
2022-11-19T11:53:34.005Z,3.40
2022-11-19T11:56:26.693Z,3.50
2022-11-19T11:59:27.906Z,3.40
2022-11-19T12:02:33.642Z,3.20
2022-11-19T12:05:22.170Z,3.30
2022-11-19T12:08:45.861Z,3.20
2022-11-19T12:12:00.380Z,3.20
2022-11-19T12:15:00.493Z,3.40
2022-11-19T12:18:13.187Z,3.50
2022-11-19T12:21:31.447Z,3.40
2022-11-19T12:25:05.616Z,3.50
2022-11-19T12:28:56.178Z,3.60
2022-11-19T12:32:08.609Z,3.70
2022-11-19T12:35:10.042Z,3.80
2022-11-19T12:38:40.285Z,3.40
2022-11-19T12:42:24.244Z,3.30
2022-11-19T12:46:09.260Z,3.60
2022-11-19T12:49:21.731Z,3.60
2022-11-19T12:53:14.587Z,3.70
2022-11-19T12:56:24.800Z,3.50
2022-11-19T12:59:39.716Z,3.50
2022-11-19T13:02:35.844Z,3.50
2022-11-19T13:06:02.741Z,3.30
2022-11-19T13:09:04.537Z,3.30
2022-11-19T13:12:19.516Z,3.20
2022-11-19T13:15:33.773Z,3.30
2022-11-19T13:18:45.135Z,3.30
2022-11-19T13:22:50.902Z,3.20
2022-11-19T13:41:21.248Z,3.30
2022-11-19T13:48:56.731Z,3.10
2022-11-19T16:03:57.760Z,2.70
2022-11-19T16:06:57.721Z,2.70
2022-11-19T16:10:13.782Z,2.60
2022-11-19T16:13:45.082Z,2.60
2022-11-19T16:21:57.425Z,2.70
2022-11-19T16:24:10.661Z,2.80
2022-11-19T16:27:25.879Z,2.80
2022-11-19T16:30:24.842Z,2.60
2022-11-19T16:33:30.399Z,2.50
2022-11-19T16:37:09.055Z,2.50
2022-11-19T16:40:23.915Z,2.70
2022-11-19T16:43:31.713Z,2.70
2022-11-19T16:50:42.335Z,2.70
2022-11-19T16:57:08.886Z,2.70
2022-11-19T17:01:01.267Z,2.70
2022-11-19T17:04:23.382Z,2.80
2022-11-19T17:12:11.138Z,2.70
2022-11-19T17:15:40.480Z,2.70
2022-11-19T17:22:13.707Z,3.10
2022-11-19T17:25:27.240Z,3.00
2022-11-19T17:28:50.470Z,3.10
2022-11-19T17:36:28.577Z,3.10
2022-11-19T17:39:45.204Z,3.00
2022-11-19T17:56:46.016Z,2.70
2022-11-19T18:30:10.058Z,2.80
2022-11-19T18:33:30.672Z,2.70
2022-11-19T19:13:33.628Z,2.60
2022-11-19T19:25:20.734Z,2.80
2022-11-19T19:29:05.188Z,2.80
2022-11-19T19:44:15.561Z,2.90
2022-11-19T19:47:21.899Z,2.70
2022-11-19T19:50:37.815Z,2.60
2022-11-19T20:09:19.888Z,2.60
2022-11-19T20:23:38.557Z,2.50
2022-11-19T21:29:24.283Z,2.30
2022-11-19T22:00:35.953Z,2.30
2022-11-19T22:12:27.000Z,2.70
2022-11-19T22:31:03.989Z,2.50
2022-11-19T22:39:21.398Z,2.60
2022-11-19T23:04:32.995Z,2.80
